Time;durP1;ratioP1;P1;durP2;ratioP2;P2;SDS_P1;SDS_P2;PMS_P1;PMS_P2;Temp;Humidity;BMP_temperature;BMP_pressure;BME280_temperature;BME280_humidity;BME280_pressure;Samples;Min_cycle;Max_cycle;Signal;HPM_P1;HPM_P2
2023/09/11 00:01:56;;;;;;;7.25;5.32;;;;;;;;;;4931019;29;20031;-79
2023/09/11 00:04:21;;;;;;;7.93;5.40;;;;;;;;;;4928622;29;20040;-80
2023/09/11 00:06:47;;;;;;;8.57;5.90;;;;;;;;;;4930266;29;20103;-79
2023/09/11 00:09:12;;;;;;;8.65;6.10;;;;;;;;;;4924556;29;20035;-79
2023/09/11 00:11:37;;;;;;;8.40;5.72;;;;;;;;;;4924441;29;20517;-79
2023/09/11 00:14:03;;;;;;;9.95;6.65;;;;;;;;;;4933738;29;20464;-79
2023/09/11 00:16:28;;;;;;;8.85;6.50;;;;;;;;;;4932575;29;20095;-80
2023/09/11 00:18:56;;;;;;;10.25;6.85;;;;;;;;;;4927624;29;20437;-79
2023/09/11 00:21:21;;;;;;;8.55;6.32;;;;;;;;;;4928399;29;20028;-80
2023/09/11 00:23:46;;;;;;;8.90;6.28;;;;;;;;;;4928875;29;20028;-79
2023/09/11 00:26:13;;;;;;;9.88;6.03;;;;;;;;;;4930622;29;20032;-80
2023/09/11 00:28:38;;;;;;;8.70;6.13;;;;;;;;;;4932885;29;20031;-80
2023/09/11 00:31:03;;;;;;;9.10;5.57;;;;;;;;;;4929128;29;20015;-80
2023/09/11 00:33:29;;;;;;;8.77;6.28;;;;;;;;;;4928116;29;20027;-80
2023/09/11 00:35:54;;;;;;;9.90;6.18;;;;;;;;;;4926326;29;20066;-79
2023/09/11 00:38:19;;;;;;;8.35;6.13;;;;;;;;;;4929629;29;20032;-79
2023/09/11 00:40:44;;;;;;;7.95;5.70;;;;;;;;;;4932371;29;20068;-79
2023/09/11 00:43:10;;;;;;;9.95;6.45;;;;;;;;;;4929670;29;20059;-80
2023/09/11 00:45:35;;;;;;;8.10;6.07;;;;;;;;;;4927805;29;20047;-79
2023/09/11 00:48:00;;;;;;;9.63;6.22;;;;;;;;;;4933879;29;20036;-79
2023/09/11 00:50:26;;;;;;;8.02;6.32;;;;;;;;;;4928246;29;20575;-79
2023/09/11 00:52:51;;;;;;;10.13;6.55;;;;;;;;;;4930039;29;20023;-80
2023/09/11 00:55:17;;;;;;;11.48;6.60;;;;;;;;;;4933464;29;20496;-80
2023/09/11 00:57:43;;;;;;;7.63;5.95;;;;;;;;;;4931888;29;20031;-79
2023/09/11 01:00:08;;;;;;;12.13;6.90;;;;;;;;;;4925920;29;20031;-79
2023/09/11 01:02:34;;;;;;;9.48;6.63;;;;;;;;;;4922897;29;20058;-80
2023/09/11 01:04:59;;;;;;;7.55;5.72;;;;;;;;;;4935296;29;20043;-79
2023/09/11 01:07:25;;;;;;;8.45;5.70;;;;;;;;;;4918123;29;20028;-79
2023/09/11 01:09:50;;;;;;;9.55;6.38;;;;;;;;;;4943200;28;20469;-79
2023/09/11 01:12:15;;;;;;;8.15;5.70;;;;;;;;;;4934325;29;20032;-80
2023/09/11 01:14:41;;;;;;;7.75;6.05;;;;;;;;;;4934798;29;20036;-79
2023/09/11 01:17:06;;;;;;;7.47;5.95;;;;;;;;;;4926493;29;20047;-79
2023/09/11 01:19:41;;;;;;;9.83;6.53;;;;;;;;;;4920550;29;20040;-80
2023/09/11 01:22:38;;;;;;;9.32;5.88;;;;;;;;;;4930891;29;20264;-79
2023/09/11 01:25:13;;;;;;;9.05;6.10;;;;;;;;;;4919297;29;20036;-80
2023/09/11 01:27:57;;;;;;;8.60;6.07;;;;;;;;;;4927098;29;20076;-79
2023/09/11 01:30:23;;;;;;;7.70;5.75;;;;;;;;;;4931622;29;20036;-79
2023/09/11 01:32:49;;;;;;;7.93;5.25;;;;;;;;;;4923911;29;20028;-80
2023/09/11 01:35:14;;;;;;;9.10;5.70;;;;;;;;;;4934603;29;20510;-79
2023/09/11 01:37:39;;;;;;;9.50;6.53;;;;;;;;;;4928391;29;20468;-79
2023/09/11 01:40:05;;;;;;;8.50;6.20;;;;;;;;;;4926900;29;20028;-79
2023/09/11 01:42:33;;;;;;;8.32;5.82;;;;;;;;;;4923648;29;20040;-80
2023/09/11 01:44:59;;;;;;;8.60;5.30;;;;;;;;;;4931183;29;20468;-80
2023/09/11 01:47:25;;;;;;;8.35;5.88;;;;;;;;;;4922256;29;20035;-79
2023/09/11 01:49:51;;;;;;;7.80;5.63;;;;;;;;;;4928325;29;20043;-80
2023/09/11 01:52:17;;;;;;;8.93;5.95;;;;;;;;;;4926225;29;20294;-80
2023/09/11 01:54:42;;;;;;;10.60;6.43;;;;;;;;;;4926177;29;20060;-79
2023/09/11 01:57:08;;;;;;;9.18;6.00;;;;;;;;;;4924462;29;20024;-79
2023/09/11 01:59:33;;;;;;;8.43;5.68;;;;;;;;;;4926358;29;20123;-79
2023/09/11 02:01:59;;;;;;;7.28;5.38;;;;;;;;;;4909931;29;20504;-80
2023/09/11 02:04:24;;;;;;;10.63;6.07;;;;;;;;;;4928371;29;20044;-80
2023/09/11 02:06:49;;;;;;;7.32;5.78;;;;;;;;;;4927651;29;20489;-79
2023/09/11 02:09:14;;;;;;;6.85;5.35;;;;;;;;;;4926521;29;20064;-80
2023/09/11 02:11:40;;;;;;;8.63;6.72;;;;;;;;;;4924914;29;20028;-80
2023/09/11 02:14:05;;;;;;;11.23;7.57;;;;;;;;;;4925063;29;20035;-79
2023/09/11 02:16:31;;;;;;;9.75;6.75;;;;;;;;;;4927362;29;20524;-79
2023/09/11 02:18:56;;;;;;;10.70;8.50;;;;;;;;;;4928771;29;20043;-80
2023/09/11 02:21:22;;;;;;;16.73;8.77;;;;;;;;;;4924691;29;20042;-79
2023/09/11 02:23:47;;;;;;;11.32;7.95;;;;;;;;;;4929052;29;20093;-79
2023/09/11 02:26:12;;;;;;;11.02;7.00;;;;;;;;;;4928367;29;20055;-79
2023/09/11 02:28:37;;;;;;;10.95;7.35;;;;;;;;;;4929829;29;20052;-79
2023/09/11 02:31:03;;;;;;;10.27;6.45;;;;;;;;;;4934575;29;20024;-79
2023/09/11 02:33:28;;;;;;;7.32;5.63;;;;;;;;;;4931763;29;20032;-80
2023/09/11 02:35:54;;;;;;;8.75;6.85;;;;;;;;;;4934498;29;20023;-80
2023/09/11 02:38:20;;;;;;;7.68;5.72;;;;;;;;;;4929259;29;20400;-80
2023/09/11 02:40:45;;;;;;;7.85;5.28;;;;;;;;;;4929735;29;20036;-80
2023/09/11 02:43:10;;;;;;;8.48;5.22;;;;;;;;;;4931641;29;20048;-80
2023/09/11 02:45:35;;;;;;;6.45;4.65;;;;;;;;;;4932630;29;20032;-80
2023/09/11 02:48:01;;;;;;;8.38;5.28;;;;;;;;;;4934942;29;20043;-80
2023/09/11 02:50:26;;;;;;;6.72;4.35;;;;;;;;;;4929298;29;20032;-80
2023/09/11 02:52:51;;;;;;;7.07;5.13;;;;;;;;;;4929591;29;20039;-80
2023/09/11 02:55:16;;;;;;;8.05;5.93;;;;;;;;;;4931805;29;20037;-80
2023/09/11 02:57:42;;;;;;;7.88;5.55;;;;;;;;;;4935441;29;20115;-80
2023/09/11 03:00:08;;;;;;;11.20;5.20;;;;;;;;;;4939346;29;20027;-80
2023/09/11 03:02:34;;;;;;;8.38;6.30;;;;;;;;;;4936385;29;20039;-80
2023/09/11 03:04:59;;;;;;;9.00;6.38;;;;;;;;;;4929582;29;20035;-80
2023/09/11 03:07:25;;;;;;;7.00;5.68;;;;;;;;;;4933878;29;20036;-80
2023/09/11 03:09:50;;;;;;;7.90;5.75;;;;;;;;;;4931248;29;20047;-80
2023/09/11 03:12:15;;;;;;;9.45;4.93;;;;;;;;;;4930668;29;20070;-80
2023/09/11 03:14:40;;;;;;;6.70;4.75;;;;;;;;;;4929228;29;20024;-80
2023/09/11 03:17:06;;;;;;;6.57;5.03;;;;;;;;;;4930440;29;20096;-80
2023/09/11 03:19:35;;;;;;;7.70;6.20;;;;;;;;;;4939990;28;20461;-80
2023/09/11 03:22:00;;;;;;;10.60;7.40;;;;;;;;;;4927539;29;20046;-80
2023/09/11 03:24:25;;;;;;;7.25;5.93;;;;;;;;;;4928557;29;20099;-80
2023/09/11 03:26:51;;;;;;;9.15;6.55;;;;;;;;;;4931536;29;20032;-80
2023/09/11 03:29:18;;;;;;;7.53;5.63;;;;;;;;;;4929500;28;20040;-80
2023/09/11 03:31:43;;;;;;;7.05;5.25;;;;;;;;;;4929619;29;20123;-80
2023/09/11 03:34:08;;;;;;;9.40;5.78;;;;;;;;;;4933760;29;20552;-79
2023/09/11 03:36:33;;;;;;;7.93;6.00;;;;;;;;;;4929368;29;20496;-80
2023/09/11 03:38:59;;;;;;;11.82;7.15;;;;;;;;;;4937172;29;20023;-79
2023/09/11 03:41:25;;;;;;;9.25;7.15;;;;;;;;;;4912160;29;20031;-79
2023/09/11 03:43:50;;;;;;;9.48;5.95;;;;;;;;;;4928622;29;20087;-80
2023/09/11 03:46:16;;;;;;;10.00;6.25;;;;;;;;;;4918278;29;20540;-79
2023/09/11 03:48:44;;;;;;;14.98;7.93;;;;;;;;;;4926202;29;20025;-79
2023/09/11 03:51:10;;;;;;;10.38;7.57;;;;;;;;;;4931865;29;20038;-79
2023/09/11 03:53:42;;;;;;;10.88;7.80;;;;;;;;;;4929426;29;20036;-79
2023/09/11 03:56:07;;;;;;;;;;;;;;;;;;4931875;29;20024;-79
2023/09/11 03:58:33;;;;;;;10.40;6.57;;;;;;;;;;4928852;29;19911;-78
2023/09/11 04:00:58;;;;;;;7.18;5.47;;;;;;;;;;4927564;29;20284;-79
2023/09/11 04:03:23;;;;;;;8.65;6.15;;;;;;;;;;4929883;29;20063;-79
2023/09/11 04:05:48;;;;;;;9.30;6.10;;;;;;;;;;4928810;29;20036;-78
2023/09/11 04:08:14;;;;;;;8.65;6.68;;;;;;;;;;4928324;29;20036;-79
2023/09/11 04:10:39;;;;;;;8.55;7.03;;;;;;;;;;4930525;29;20027;-79
2023/09/11 04:13:04;;;;;;;8.82;6.10;;;;;;;;;;4930522;29;20489;-79
2023/09/11 04:15:29;;;;;;;9.40;6.45;;;;;;;;;;4929416;29;20471;-80
2023/09/11 04:17:56;;;;;;;8.48;6.57;;;;;;;;;;4927591;29;20027;-79
2023/09/11 04:20:21;;;;;;;9.30;6.40;;;;;;;;;;4927292;29;20055;-79
2023/09/11 04:22:47;;;;;;;9.50;6.82;;;;;;;;;;4933764;29;20110;-79
2023/09/11 04:25:12;;;;;;;10.18;7.32;;;;;;;;;;4927237;29;20068;-79
2023/09/11 04:27:37;;;;;;;8.23;6.38;;;;;;;;;;4927340;29;20031;-79
2023/09/11 04:30:03;;;;;;;10.52;6.80;;;;;;;;;;4927396;29;20084;-79
2023/09/11 04:32:28;;;;;;;9.10;6.20;;;;;;;;;;4930525;29;20032;-79
2023/09/11 04:34:54;;;;;;;10.05;5.32;;;;;;;;;;4928108;29;20028;-79
2023/09/11 04:37:19;;;;;;;9.88;5.97;;;;;;;;;;4928844;29;20385;-79
2023/09/11 04:39:44;;;;;;;7.90;5.70;;;;;;;;;;4926641;29;20134;-79
2023/09/11 04:42:10;;;;;;;9.00;6.18;;;;;;;;;;4928766;29;20456;-79
2023/09/11 04:44:35;;;;;;;8.27;6.07;;;;;;;;;;4930056;29;20032;-78
2023/09/11 04:47:00;;;;;;;8.10;6.22;;;;;;;;;;4933118;29;20031;-79
2023/09/11 04:49:25;;;;;;;8.68;5.63;;;;;;;;;;4930642;29;20038;-79
2023/09/11 04:51:52;;;;;;;7.63;5.63;;;;;;;;;;4925668;29;20489;-79
2023/09/11 04:54:17;;;;;;;9.00;6.05;;;;;;;;;;4927986;29;20027;-78
2023/09/11 04:56:42;;;;;;;9.63;6.10;;;;;;;;;;4928428;29;20472;-79
2023/09/11 04:59:09;;;;;;;10.15;6.45;;;;;;;;;;4934158;29;20039;-80
2023/09/11 05:01:35;;;;;;;9.02;6.20;;;;;;;;;;4928807;29;20027;-79
2023/09/11 05:04:01;;;;;;;9.88;6.13;;;;;;;;;;4929994;29;20044;-79
2023/09/11 05:06:26;;;;;;;8.82;5.93;;;;;;;;;;4930321;29;20028;-79
2023/09/11 05:08:52;;;;;;;9.98;6.25;;;;;;;;;;4928738;29;20477;-79
2023/09/11 05:11:17;;;;;;;11.35;7.82;;;;;;;;;;4928468;29;20029;-79
2023/09/11 05:13:43;;;;;;;8.15;5.90;;;;;;;;;;4926049;29;20027;-79
2023/09/11 05:16:08;;;;;;;8.05;6.32;;;;;;;;;;4929132;29;20116;-79
2023/09/11 05:18:33;;;;;;;10.82;7.68;;;;;;;;;;4927127;29;20027;-79
2023/09/11 05:20:58;;;;;;;8.77;7.10;;;;;;;;;;4908972;29;20030;-79
2023/09/11 05:23:24;;;;;;;9.43;7.38;;;;;;;;;;4928007;29;20036;-79
2023/09/11 05:25:49;;;;;;;9.30;7.20;;;;;;;;;;4927130;29;20062;-79
2023/09/11 05:28:15;;;;;;;10.23;7.13;;;;;;;;;;4931606;29;20098;-79
2023/09/11 05:30:40;;;;;;;11.32;6.90;;;;;;;;;;4926657;29;20095;-79
2023/09/11 05:33:05;;;;;;;12.32;7.50;;;;;;;;;;4926559;29;20028;-79
2023/09/11 05:35:31;;;;;;;10.75;7.47;;;;;;;;;;4932036;29;20496;-79
2023/09/11 05:37:57;;;;;;;10.02;7.35;;;;;;;;;;4927172;29;20087;-79
2023/09/11 05:40:22;;;;;;;11.23;7.18;;;;;;;;;;4927393;29;20035;-79
2023/09/11 05:42:47;;;;;;;10.35;6.50;;;;;;;;;;4926975;29;20046;-79
2023/09/11 05:45:12;;;;;;;10.60;7.88;;;;;;;;;;4929332;29;20036;-79
2023/09/11 05:47:39;;;;;;;11.23;7.47;;;;;;;;;;4931406;29;20059;-79
2023/09/11 05:50:05;;;;;;;9.52;7.63;;;;;;;;;;4927305;29;20411;-79
2023/09/11 05:52:30;;;;;;;12.27;8.32;;;;;;;;;;4929048;29;20036;-79
2023/09/11 05:54:55;;;;;;;12.70;8.60;;;;;;;;;;4927947;29;20519;-79
2023/09/11 05:57:21;;;;;;;10.00;7.57;;;;;;;;;;4930327;29;20448;-79
2023/09/11 05:59:46;;;;;;;11.40;7.63;;;;;;;;;;4935164;29;20035;-79
2023/09/11 06:02:11;;;;;;;11.85;8.70;;;;;;;;;;4932802;29;20048;-79
2023/09/11 06:04:37;;;;;;;11.48;9.13;;;;;;;;;;4933091;29;20036;-79
2023/09/11 06:07:03;;;;;;;13.57;9.57;;;;;;;;;;4932480;29;20042;-79
2023/09/11 06:09:28;;;;;;;10.77;8.73;;;;;;;;;;4933870;29;20547;-79
2023/09/11 06:11:53;;;;;;;12.00;10.45;;;;;;;;;;4929956;29;20035;-79
2023/09/11 06:14:19;;;;;;;13.95;11.15;;;;;;;;;;4932873;29;20060;-80
2023/09/11 06:16:44;;;;;;;15.52;12.00;;;;;;;;;;4931082;29;20024;-79
2023/09/11 06:19:09;;;;;;;14.32;10.85;;;;;;;;;;4932449;29;20412;-79
2023/09/11 06:21:34;;;;;;;15.00;11.23;;;;;;;;;;4931011;29;20027;-80
2023/09/11 06:24:00;;;;;;;12.68;9.43;;;;;;;;;;4931342;29;20047;-79
2023/09/11 06:26:25;;;;;;;13.40;10.55;;;;;;;;;;4933578;29;20027;-79
2023/09/11 06:28:50;;;;;;;11.93;10.18;;;;;;;;;;4932424;29;20031;-79
2023/09/11 06:31:16;;;;;;;12.27;10.23;;;;;;;;;;4922706;29;20042;-79
2023/09/11 06:33:43;;;;;;;12.02;9.50;;;;;;;;;;4932292;29;20040;-79
2023/09/11 06:36:08;;;;;;;12.38;9.82;;;;;;;;;;4933677;29;20615;-79
2023/09/11 06:38:34;;;;;;;13.20;9.77;;;;;;;;;;4934449;29;20063;-79
2023/09/11 06:40:59;;;;;;;17.08;12.25;;;;;;;;;;4926414;29;20028;-79
2023/09/11 06:43:25;;;;;;;15.32;10.43;;;;;;;;;;4932297;29;20039;-79
2023/09/11 06:45:53;;;;;;;16.05;12.57;;;;;;;;;;4929824;29;20203;-80
2023/09/11 06:48:19;;;;;;;15.05;11.57;;;;;;;;;;4931249;29;20044;-79
2023/09/11 06:50:44;;;;;;;14.43;12.57;;;;;;;;;;4927452;29;20047;-79
2023/09/11 06:53:10;;;;;;;14.32;11.25;;;;;;;;;;4931394;29;20063;-79
2023/09/11 06:55:35;;;;;;;11.40;10.02;;;;;;;;;;4932662;29;20075;-79
2023/09/11 06:58:01;;;;;;;14.20;10.82;;;;;;;;;;4919909;29;20020;-79
2023/09/11 07:00:27;;;;;;;14.02;12.30;;;;;;;;;;4930103;29;20035;-79
2023/09/11 07:02:52;;;;;;;16.80;13.85;;;;;;;;;;4935218;29;20042;-79
2023/09/11 07:05:17;;;;;;;13.90;11.23;;;;;;;;;;4933693;29;20114;-79
2023/09/11 07:07:43;;;;;;;20.27;12.25;;;;;;;;;;4930620;29;20043;-79
2023/09/11 07:10:11;;;;;;;13.40;9.82;;;;;;;;;;4929392;29;20134;-79
2023/09/11 07:12:37;;;;;;;14.60;10.95;;;;;;;;;;4932924;29;20035;-80
2023/09/11 07:15:02;;;;;;;14.77;10.52;;;;;;;;;;4927873;29;20519;-79
2023/09/11 07:17:28;;;;;;;15.77;11.32;;;;;;;;;;4917187;29;20032;-80
2023/09/11 07:19:53;;;;;;;19.10;14.57;;;;;;;;;;4932151;29;20035;-79
2023/09/11 07:22:18;;;;;;;15.93;11.73;;;;;;;;;;4932805;29;20046;-80
2023/09/11 07:24:44;;;;;;;17.80;14.48;;;;;;;;;;4933347;29;20036;-80
2023/09/11 07:27:09;;;;;;;15.55;12.75;;;;;;;;;;4938100;29;20036;-79
2023/09/11 07:29:34;;;;;;;15.52;11.38;;;;;;;;;;4936605;29;20087;-80
2023/09/11 07:31:59;;;;;;;14.18;10.93;;;;;;;;;;4936609;29;20583;-80
2023/09/11 07:34:25;;;;;;;13.55;10.95;;;;;;;;;;4933776;29;20026;-80
2023/09/11 07:36:50;;;;;;;12.68;10.80;;;;;;;;;;4936012;29;20028;-80
2023/09/11 07:39:15;;;;;;;13.82;9.55;;;;;;;;;;4921772;29;20024;-80
2023/09/11 07:41:40;;;;;;;12.50;10.27;;;;;;;;;;4935049;29;20488;-80
2023/09/11 07:44:05;;;;;;;11.48;10.27;;;;;;;;;;4933927;29;20305;-80
2023/09/11 07:46:31;;;;;;;12.57;9.27;;;;;;;;;;4921283;29;20107;-80
2023/09/11 07:48:56;;;;;;;13.07;8.50;;;;;;;;;;4931055;29;20021;-80
2023/09/11 07:51:21;;;;;;;12.60;7.93;;;;;;;;;;4937554;29;20031;-79
2023/09/11 07:53:46;;;;;;;13.02;8.82;;;;;;;;;;4936990;29;20295;-80
2023/09/11 07:56:12;;;;;;;11.43;8.60;;;;;;;;;;4937360;29;20140;-80
2023/09/11 07:58:38;;;;;;;12.13;9.93;;;;;;;;;;4932550;29;20279;-80
2023/09/11 08:01:03;;;;;;;17.08;11.65;;;;;;;;;;4934477;29;20028;-80
2023/09/11 08:03:28;;;;;;;11.20;8.25;;;;;;;;;;4913118;29;20154;-80
2023/09/11 08:05:54;;;;;;;12.65;9.10;;;;;;;;;;4933487;29;20036;-80
2023/09/11 08:08:19;;;;;;;9.15;7.03;;;;;;;;;;4938453;29;20040;-80
2023/09/11 08:10:45;;;;;;;9.75;7.13;;;;;;;;;;4933098;29;20040;-80
2023/09/11 08:13:10;;;;;;;7.77;6.43;;;;;;;;;;4935626;29;20083;-80
2023/09/11 08:15:35;;;;;;;9.73;8.73;;;;;;;;;;4934555;29;20272;-80
2023/09/11 08:18:00;;;;;;;10.27;8.30;;;;;;;;;;4931316;29;20020;-80
2023/09/11 08:20:26;;;;;;;11.90;6.78;;;;;;;;;;4937506;29;20110;-80
2023/09/11 08:22:51;;;;;;;7.63;6.25;;;;;;;;;;4935149;29;20119;-80
2023/09/11 08:25:16;;;;;;;8.10;6.32;;;;;;;;;;4935007;29;20138;-80
2023/09/11 08:27:41;;;;;;;8.80;6.28;;;;;;;;;;4935298;29;20043;-80
2023/09/11 08:30:07;;;;;;;7.68;6.32;;;;;;;;;;4932067;29;20032;-80
2023/09/11 08:32:35;;;;;;;8.20;6.70;;;;;;;;;;4927668;29;20042;-80
2023/09/11 08:35:00;;;;;;;8.23;6.47;;;;;;;;;;4926995;29;20853;-80
2023/09/11 08:37:25;;;;;;;9.13;6.80;;;;;;;;;;4935477;29;20089;-80
2023/09/11 08:39:51;;;;;;;10.75;8.38;;;;;;;;;;4932797;29;20303;-80
2023/09/11 08:42:16;;;;;;;9.88;6.70;;;;;;;;;;4931656;29;20040;-80
2023/09/11 08:44:42;;;;;;;13.13;7.00;;;;;;;;;;4935513;29;20059;-80
2023/09/11 08:47:08;;;;;;;9.45;6.75;;;;;;;;;;4933410;29;20028;-80
2023/09/11 08:49:33;;;;;;;8.30;6.45;;;;;;;;;;4936447;29;20031;-80
2023/09/11 08:52:01;;;;;;;9.55;6.70;;;;;;;;;;4933233;29;20044;-80
2023/09/11 08:54:31;;;;;;;13.52;7.47;;;;;;;;;;4933007;29;20043;-80
2023/09/11 08:56:57;;;;;;;7.65;6.10;;;;;;;;;;4928304;29;20032;-80
2023/09/11 08:59:23;;;;;;;7.90;6.20;;;;;;;;;;4931426;29;20411;-80
2023/09/11 09:01:49;;;;;;;8.52;6.50;;;;;;;;;;4932367;29;20441;-80
2023/09/11 09:04:15;;;;;;;7.97;6.25;;;;;;;;;;4929868;29;20044;-80
2023/09/11 09:06:41;;;;;;;9.77;6.32;;;;;;;;;;4934878;29;20034;-80
2023/09/11 09:09:06;;;;;;;8.05;6.25;;;;;;;;;;4939325;29;20036;-80
2023/09/11 09:11:31;;;;;;;7.33;6.00;;;;;;;;;;4933124;29;20038;-80
2023/09/11 09:13:57;;;;;;;12.70;6.85;;;;;;;;;;4938640;29;20287;-81
2023/09/11 09:16:23;;;;;;;9.55;6.63;;;;;;;;;;4937388;29;20118;-80
2023/09/11 09:18:49;;;;;;;10.63;7.10;;;;;;;;;;4934910;29;20091;-80
2023/09/11 09:23:44;;;;;;;10.77;8.55;;;;;;;;;;4900451;29;20140;-78
2023/09/11 09:26:10;;;;;;;9.88;7.40;;;;;;;;;;4892237;29;20132;-77
2023/09/11 09:28:42;;;;;;;10.63;8.32;;;;;;;;;;4894358;29;20040;-78
2023/09/11 09:31:08;;;;;;;9.45;6.95;;;;;;;;;;4891317;29;20033;-77
2023/09/11 09:33:33;;;;;;;11.82;8.65;;;;;;;;;;4888002;29;20032;-77
2023/09/11 09:35:59;;;;;;;9.88;8.30;;;;;;;;;;4894776;29;20529;-78
2023/09/11 09:38:25;;;;;;;13.48;6.95;;;;;;;;;;4890252;29;20403;-78
2023/09/11 09:40:51;;;;;;;8.45;5.82;;;;;;;;;;4890150;29;20032;-77
2023/09/11 09:43:17;;;;;;;8.90;6.35;;;;;;;;;;4892594;29;20051;-77
2023/09/11 09:45:43;;;;;;;10.48;5.20;;;;;;;;;;4894429;29;20029;-78
2023/09/11 09:48:09;;;;;;;11.55;5.13;;;;;;;;;;4890935;29;20754;-78
2023/09/11 09:50:54;;;;;;;7.97;5.30;;;;;;;;;;4899827;29;20096;-78
2023/09/11 09:53:23;;;;;;;9.65;5.50;;;;;;;;;;4890295;29;20041;-77
2023/09/11 09:55:49;;;;;;;9.73;5.15;;;;;;;;;;4908051;29;20409;-78
2023/09/11 09:58:14;;;;;;;7.72;5.68;;;;;;;;;;4896832;29;20037;-78
2023/09/11 10:00:39;;;;;;;8.23;4.80;;;;;;;;;;4894500;29;20029;-78
2023/09/11 10:03:04;;;;;;;12.27;10.10;;;;;;;;;;4904115;29;20296;-79
2023/09/11 10:05:29;;;;;;;11.18;8.02;;;;;;;;;;4892447;29;20316;-78
2023/09/11 10:07:58;;;;;;;11.30;7.20;;;;;;;;;;4890107;29;20040;-79
2023/09/11 10:10:27;;;;;;;8.63;4.95;;;;;;;;;;4893956;29;20673;-79
2023/09/11 10:12:52;;;;;;;11.82;6.72;;;;;;;;;;4894192;29;20474;-79
2023/09/11 10:15:18;;;;;;;7.13;4.90;;;;;;;;;;4891528;29;20037;-80
2023/09/11 10:17:43;;;;;;;9.75;5.32;;;;;;;;;;4910167;29;20273;-79
2023/09/11 10:20:09;;;;;;;8.57;4.75;;;;;;;;;;4892383;29;20454;-79
2023/09/11 10:22:34;;;;;;;7.85;4.75;;;;;;;;;;4888526;29;20125;-79
2023/09/11 10:24:59;;;;;;;7.67;4.67;;;;;;;;;;4896076;29;20045;-79
2023/09/11 10:27:25;;;;;;;8.00;5.20;;;;;;;;;;4891910;29;20320;-79
2023/09/11 10:29:54;;;;;;;13.85;11.63;;;;;;;;;;4891082;29;20282;-79
2023/09/11 10:32:26;;;;;;;14.20;12.70;;;;;;;;;;4889873;29;20033;-78
2023/09/11 10:34:51;;;;;;;10.27;9.23;;;;;;;;;;4891327;29;20031;-78
2023/09/11 10:37:19;;;;;;;6.82;5.38;;;;;;;;;;4889287;29;20028;-78
2023/09/11 10:39:44;;;;;;;7.53;5.95;;;;;;;;;;4892975;29;20037;-78
2023/09/11 10:42:10;;;;;;;8.27;4.90;;;;;;;;;;4894073;29;20164;-78
2023/09/11 10:44:36;;;;;;;5.30;4.18;;;;;;;;;;4896323;29;20080;-78
2023/09/11 10:47:03;;;;;;;7.13;5.15;;;;;;;;;;4910906;29;20101;-79
2023/09/11 10:49:32;;;;;;;7.50;5.55;;;;;;;;;;4891377;29;20051;-78
2023/09/11 10:51:57;;;;;;;5.18;3.58;;;;;;;;;;4893935;29;20036;-80
2023/09/11 10:54:23;;;;;;;6.27;3.60;;;;;;;;;;4898335;29;20388;-79
2023/09/11 10:56:49;;;;;;;10.23;4.82;;;;;;;;;;4896346;29;20295;-79
2023/09/11 10:59:14;;;;;;;5.18;3.80;;;;;;;;;;4896606;29;20037;-79
2023/09/11 11:01:40;;;;;;;5.32;3.40;;;;;;;;;;4894737;29;20103;-81
2023/09/11 11:04:05;;;;;;;4.80;3.40;;;;;;;;;;4890699;29;20029;-81
2023/09/11 11:06:31;;;;;;;6.60;3.83;;;;;;;;;;4890805;29;20275;-81
2023/09/11 11:08:57;;;;;;;6.53;3.55;;;;;;;;;;4896850;29;20029;-81
2023/09/11 11:11:27;;;;;;;5.03;3.45;;;;;;;;;;4905254;29;20039;-81
2023/09/11 11:14:11;;;;;;;5.20;3.95;;;;;;;;;;4887421;29;20044;-81
2023/09/11 11:16:37;;;;;;;7.22;5.38;;;;;;;;;;4894774;29;20044;-81
2023/09/11 11:19:03;;;;;;;8.13;4.28;;;;;;;;;;4888593;29;21835;-81
2023/09/11 11:21:37;;;;;;;5.38;3.80;;;;;;;;;;4892816;29;20033;-81
2023/09/11 11:24:04;;;;;;;5.13;3.55;;;;;;;;;;4892474;29;20487;-81
2023/09/11 11:26:30;;;;;;;6.38;3.75;;;;;;;;;;4891531;29;20036;-81
2023/09/11 11:28:56;;;;;;;5.40;3.90;;;;;;;;;;4893058;29;20551;-81
2023/09/11 11:31:22;;;;;;;5.55;3.88;;;;;;;;;;4890218;29;20044;-81
2023/09/11 11:33:48;;;;;;;6.60;4.05;;;;;;;;;;4895123;29;20044;-81
2023/09/11 11:36:15;;;;;;;8.63;4.65;;;;;;;;;;4895158;29;20028;-82
2023/09/11 11:38:45;;;;;;;6.93;3.90;;;;;;;;;;4888246;29;20116;-81
2023/09/11 11:41:10;;;;;;;7.55;4.72;;;;;;;;;;4890941;29;20036;-82
2023/09/11 11:43:36;;;;;;;5.53;3.60;;;;;;;;;;4894210;29;20489;-82
2023/09/11 11:46:03;;;;;;;5.05;3.22;;;;;;;;;;4890987;29;20037;-81
2023/09/11 11:48:29;;;;;;;9.20;3.90;;;;;;;;;;4915827;29;20040;-82
2023/09/11 11:50:55;;;;;;;5.00;3.97;;;;;;;;;;4888072;29;20033;-82
2023/09/11 11:53:21;;;;;;;6.40;3.53;;;;;;;;;;4892927;29;20572;-82
2023/09/11 11:55:46;;;;;;;6.35;3.50;;;;;;;;;;4892061;29;20029;-82
2023/09/11 11:58:12;;;;;;;8.93;3.67;;;;;;;;;;4899423;29;20446;-82
2023/09/11 12:00:54;;;;;;;6.20;3.65;;;;;;;;;;4894164;29;20040;-81
2023/09/11 12:03:19;;;;;;;;;;;;;;;;;;4892314;29;20649;-82
2023/09/11 12:05:44;;;;;;;4.97;3.17;;;;;;;;;;4893804;29;20050;-81
2023/09/11 12:08:11;;;;;;;5.03;3.47;;;;;;;;;;4895408;29;20028;-82
2023/09/11 12:10:44;;;;;;;4.65;3.47;;;;;;;;;;4890794;29;20281;-81
2023/09/11 12:13:10;;;;;;;4.57;3.35;;;;;;;;;;4890669;29;20036;-82
2023/09/11 12:15:35;;;;;;;6.50;3.92;;;;;;;;;;4893621;29;20060;-82
2023/09/11 12:18:00;;;;;;;6.73;4.70;;;;;;;;;;4891416;29;20067;-82
2023/09/11 12:20:25;;;;;;;6.35;4.45;;;;;;;;;;4898352;29;20280;-82
2023/09/11 12:22:51;;;;;;;5.97;4.10;;;;;;;;;;4895752;29;20044;-82
2023/09/11 12:25:17;;;;;;;7.53;3.77;;;;;;;;;;4890295;29;20281;-82
2023/09/11 12:27:43;;;;;;;6.43;3.75;;;;;;;;;;4906353;29;20284;-82
2023/09/11 12:30:09;;;;;;;6.10;3.95;;;;;;;;;;4895375;29;20053;-82
2023/09/11 12:32:34;;;;;;;4.85;3.63;;;;;;;;;;4896432;29;20076;-82
2023/09/11 12:35:00;;;;;;;6.60;4.00;;;;;;;;;;4897658;29;20056;-82
2023/09/11 12:37:25;;;;;;;7.38;5.57;;;;;;;;;;4895658;29;20069;-82
2023/09/11 12:39:51;;;;;;;5.30;3.90;;;;;;;;;;4886352;29;20040;-82
2023/09/11 12:42:16;;;;;;;6.53;4.13;;;;;;;;;;4890763;29;20032;-82
2023/09/11 12:44:41;;;;;;;6.68;3.60;;;;;;;;;;4888669;29;20288;-82
2023/09/11 12:47:08;;;;;;;6.82;3.78;;;;;;;;;;4896958;29;20036;-82
2023/09/11 12:49:34;;;;;;;5.10;3.30;;;;;;;;;;4897437;29;20405;-81
2023/09/11 12:51:59;;;;;;;7.93;4.53;;;;;;;;;;4893087;29;20036;-82
2023/09/11 12:54:24;;;;;;;8.97;3.90;;;;;;;;;;4891729;29;20445;-82
2023/09/11 12:56:50;;;;;;;7.97;3.45;;;;;;;;;;4891763;29;20529;-82
2023/09/11 12:59:15;;;;;;;5.87;3.67;;;;;;;;;;4895948;29;20104;-82
2023/09/11 13:01:40;;;;;;;7.38;3.80;;;;;;;;;;4894663;29;20757;-82
2023/09/11 13:04:06;;;;;;;8.53;3.80;;;;;;;;;;4896408;29;20024;-82
2023/09/11 13:06:31;;;;;;;7.10;3.60;;;;;;;;;;4892466;29;20088;-81
2023/09/11 13:08:56;;;;;;;5.20;3.80;;;;;;;;;;4892116;29;20345;-81
2023/09/11 13:11:22;;;;;;;5.18;4.03;;;;;;;;;;4912360;29;20065;-82
2023/09/11 13:13:47;;;;;;;7.57;3.70;;;;;;;;;;4897789;29;20044;-82
2023/09/11 13:16:12;;;;;;;6.53;4.13;;;;;;;;;;4899196;29;20095;-81
2023/09/11 13:18:37;;;;;;;5.17;3.40;;;;;;;;;;4894250;29;20440;-81
2023/09/11 13:21:03;;;;;;;7.30;3.37;;;;;;;;;;4889983;29;20506;-81
2023/09/11 13:23:28;;;;;;;7.10;3.20;;;;;;;;;;4887286;29;20666;-82
2023/09/11 13:25:54;;;;;;;7.32;5.05;;;;;;;;;;4889344;29;20060;-81
2023/09/11 13:28:19;;;;;;;6.30;4.28;;;;;;;;;;4889722;29;20043;-82
2023/09/11 13:30:44;;;;;;;6.37;3.73;;;;;;;;;;4891058;29;20056;-81
2023/09/11 13:33:09;;;;;;;5.60;3.20;;;;;;;;;;4887049;29;20040;-82
2023/09/11 13:35:34;;;;;;;5.47;3.70;;;;;;;;;;4887221;29;20029;-82
2023/09/11 13:38:02;;;;;;;8.20;3.80;;;;;;;;;;4901577;29;20402;-82
2023/09/11 13:40:27;;;;;;;6.22;3.90;;;;;;;;;;4890170;29;20028;-82
2023/09/11 13:42:52;;;;;;;4.87;3.27;;;;;;;;;;4887381;29;20450;-82
2023/09/11 13:45:18;;;;;;;4.80;3.70;;;;;;;;;;4887878;29;20285;-82
2023/09/11 13:47:43;;;;;;;5.85;3.85;;;;;;;;;;4891691;29;20055;-80
2023/09/11 13:50:09;;;;;;;6.75;3.58;;;;;;;;;;4891579;29;20036;-80
2023/09/11 13:52:34;;;;;;;7.07;3.55;;;;;;;;;;4888857;29;20037;-81
2023/09/11 13:55:00;;;;;;;6.28;3.40;;;;;;;;;;4886776;29;20045;-81
2023/09/11 13:57:25;;;;;;;7.87;4.30;;;;;;;;;;4888863;29;20036;-80
2023/09/11 13:59:50;;;;;;;8.10;4.90;;;;;;;;;;4892406;29;20069;-81
2023/09/11 14:02:15;;;;;;;5.90;4.53;;;;;;;;;;4888073;29;20281;-81
2023/09/11 14:04:40;;;;;;;9.53;3.70;;;;;;;;;;4887739;29;20040;-80
2023/09/11 14:07:06;;;;;;;7.03;3.60;;;;;;;;;;4885292;29;20048;-80
2023/09/11 14:09:31;;;;;;;6.60;5.73;;;;;;;;;;4888427;29;20044;-81
2023/09/11 14:11:56;;;;;;;6.20;3.50;;;;;;;;;;4886717;29;20033;-79
2023/09/11 14:14:21;;;;;;;5.85;3.55;;;;;;;;;;4894984;29;20105;-81
2023/09/11 14:16:47;;;;;;;4.90;3.43;;;;;;;;;;4889185;29;20033;-81
2023/09/11 14:19:12;;;;;;;5.83;3.40;;;;;;;;;;4891499;29;20040;-81
2023/09/11 14:21:37;;;;;;;4.50;3.57;;;;;;;;;;4901320;29;20036;-81
2023/09/11 14:24:04;;;;;;;4.30;3.60;;;;;;;;;;4893247;29;20055;-80
2023/09/11 14:26:29;;;;;;;7.07;4.18;;;;;;;;;;4893821;29;20047;-80
2023/09/11 14:28:54;;;;;;;7.50;4.00;;;;;;;;;;4892374;29;20045;-79
2023/09/11 14:31:21;;;;;;;4.60;3.27;;;;;;;;;;4896394;29;20040;-81
2023/09/11 14:33:46;;;;;;;6.95;3.40;;;;;;;;;;4895836;29;20589;-80